sensor_id;sensor_type;location;lat;lon;timestamp;temperature;humidity
5901;DHT22;2976;49.764;9.796;2022-08-21T00:00:52;15.10;99.90
5901;DHT22;2976;49.764;9.796;2022-08-21T00:03:18;15.10;99.90
5901;DHT22;2976;49.764;9.796;2022-08-21T00:05:49;15.20;99.90
5901;DHT22;2976;49.764;9.796;2022-08-21T00:08:17;15.20;99.90
5901;DHT22;2976;49.764;9.796;2022-08-21T00:10:43;15.20;99.90
5901;DHT22;2976;49.764;9.796;2022-08-21T00:13:10;15.10;99.90
5901;DHT22;2976;49.764;9.796;2022-08-21T00:15:37;15.00;99.90
5901;DHT22;2976;49.764;9.796;2022-08-21T00:18:04;14.80;99.90
5901;DHT22;2976;49.764;9.796;2022-08-21T00:20:30;14.80;99.90
5901;DHT22;2976;49.764;9.796;2022-08-21T00:22:56;14.70;99.90
5901;DHT22;2976;49.764;9.796;2022-08-21T00:25:22;14.70;99.90
5901;DHT22;2976;49.764;9.796;2022-08-21T00:27:47;14.70;99.90
5901;DHT22;2976;49.764;9.796;2022-08-21T00:30:15;14.70;99.90
5901;DHT22;2976;49.764;9.796;2022-08-21T00:32:42;14.70;99.90
5901;DHT22;2976;49.764;9.796;2022-08-21T00:35:11;14.80;99.90
5901;DHT22;2976;49.764;9.796;2022-08-21T00:37:40;14.90;99.90
5901;DHT22;2976;49.764;9.796;2022-08-21T00:40:09;15.00;99.90
5901;DHT22;2976;49.764;9.796;2022-08-21T00:42:35;15.00;99.90
5901;DHT22;2976;49.764;9.796;2022-08-21T00:45:02;14.90;99.90
5901;DHT22;2976;49.764;9.796;2022-08-21T00:47:28;14.90;99.90
5901;DHT22;2976;49.764;9.796;2022-08-21T00:49:54;14.90;99.90
5901;DHT22;2976;49.764;9.796;2022-08-21T00:52:23;14.90;99.90
5901;DHT22;2976;49.764;9.796;2022-08-21T00:54:50;14.90;99.90
5901;DHT22;2976;49.764;9.796;2022-08-21T00:57:20;14.80;99.90
5901;DHT22;2976;49.764;9.796;2022-08-21T00:59:48;14.80;99.90
5901;DHT22;2976;49.764;9.796;2022-08-21T01:02:16;14.70;99.90
5901;DHT22;2976;49.764;9.796;2022-08-21T01:04:41;14.60;99.90
5901;DHT22;2976;49.764;9.796;2022-08-21T01:07:07;14.50;99.90
5901;DHT22;2976;49.764;9.796;2022-08-21T01:09:33;14.50;99.90
5901;DHT22;2976;49.764;9.796;2022-08-21T01:11:59;14.40;99.90
5901;DHT22;2976;49.764;9.796;2022-08-21T01:14:25;14.40;99.90
5901;DHT22;2976;49.764;9.796;2022-08-21T01:16:52;14.40;99.90
5901;DHT22;2976;49.764;9.796;2022-08-21T01:19:20;14.40;99.90
5901;DHT22;2976;49.764;9.796;2022-08-21T01:21:45;14.40;99.90
5901;DHT22;2976;49.764;9.796;2022-08-21T01:24:12;14.40;99.90
5901;DHT22;2976;49.764;9.796;2022-08-21T01:26:38;14.40;99.90
5901;DHT22;2976;49.764;9.796;2022-08-21T01:31:55;14.20;99.90
5901;DHT22;2976;49.764;9.796;2022-08-21T01:34:21;14.10;99.90
5901;DHT22;2976;49.764;9.796;2022-08-21T01:36:47;14.00;99.90
5901;DHT22;2976;49.764;9.796;2022-08-21T01:39:14;14.10;99.90
5901;DHT22;2976;49.764;9.796;2022-08-21T01:41:40;14.10;99.90
5901;DHT22;2976;49.764;9.796;2022-08-21T01:44:05;14.10;99.90
5901;DHT22;2976;49.764;9.796;2022-08-21T01:46:31;14.10;99.90
5901;DHT22;2976;49.764;9.796;2022-08-21T01:48:57;14.10;99.90
5901;DHT22;2976;49.764;9.796;2022-08-21T01:51:22;14.00;99.90
5901;DHT22;2976;49.764;9.796;2022-08-21T01:53:48;14.00;99.90
5901;DHT22;2976;49.764;9.796;2022-08-21T01:56:15;14.00;99.90
5901;DHT22;2976;49.764;9.796;2022-08-21T01:58:43;14.00;99.90
5901;DHT22;2976;49.764;9.796;2022-08-21T02:01:09;14.00;99.90
5901;DHT22;2976;49.764;9.796;2022-08-21T02:03:35;14.00;99.90
5901;DHT22;2976;49.764;9.796;2022-08-21T02:06:02;14.00;99.90
5901;DHT22;2976;49.764;9.796;2022-08-21T02:08:28;14.00;99.90
5901;DHT22;2976;49.764;9.796;2022-08-21T02:10:54;13.90;99.90
5901;DHT22;2976;49.764;9.796;2022-08-21T02:13:19;13.90;99.90
5901;DHT22;2976;49.764;9.796;2022-08-21T02:15:45;13.80;99.90
5901;DHT22;2976;49.764;9.796;2022-08-21T02:18:11;13.80;99.90
5901;DHT22;2976;49.764;9.796;2022-08-21T02:20:39;13.70;99.90
5901;DHT22;2976;49.764;9.796;2022-08-21T02:23:07;13.70;99.90
5901;DHT22;2976;49.764;9.796;2022-08-21T02:25:33;13.70;99.90
5901;DHT22;2976;49.764;9.796;2022-08-21T02:28:02;13.60;99.90
5901;DHT22;2976;49.764;9.796;2022-08-21T02:30:34;13.60;99.90
5901;DHT22;2976;49.764;9.796;2022-08-21T02:33:00;13.50;99.90
5901;DHT22;2976;49.764;9.796;2022-08-21T02:35:26;13.40;99.90
5901;DHT22;2976;49.764;9.796;2022-08-21T02:37:58;13.30;99.90
5901;DHT22;2976;49.764;9.796;2022-08-21T02:40:27;13.40;99.90
5901;DHT22;2976;49.764;9.796;2022-08-21T02:42:54;13.40;99.90
5901;DHT22;2976;49.764;9.796;2022-08-21T02:45:19;13.40;99.90
5901;DHT22;2976;49.764;9.796;2022-08-21T02:47:56;13.40;99.90
5901;DHT22;2976;49.764;9.796;2022-08-21T02:50:28;13.20;99.90
5901;DHT22;2976;49.764;9.796;2022-08-21T02:52:55;13.00;99.90
5901;DHT22;2976;49.764;9.796;2022-08-21T02:55:22;12.90;99.90
5901;DHT22;2976;49.764;9.796;2022-08-21T02:57:48;12.90;99.90
5901;DHT22;2976;49.764;9.796;2022-08-21T03:00:15;12.90;99.90
5901;DHT22;2976;49.764;9.796;2022-08-21T03:02:41;13.00;99.90
5901;DHT22;2976;49.764;9.796;2022-08-21T03:05:08;13.00;99.90
5901;DHT22;2976;49.764;9.796;2022-08-21T03:07:36;13.00;99.90
5901;DHT22;2976;49.764;9.796;2022-08-21T03:10:05;13.00;99.90
5901;DHT22;2976;49.764;9.796;2022-08-21T03:12:31;12.90;99.90
5901;DHT22;2976;49.764;9.796;2022-08-21T03:14:57;12.90;99.90
5901;DHT22;2976;49.764;9.796;2022-08-21T03:17:23;12.80;99.90
5901;DHT22;2976;49.764;9.796;2022-08-21T03:19:49;12.70;99.90
5901;DHT22;2976;49.764;9.796;2022-08-21T03:22:15;12.60;99.90
5901;DHT22;2976;49.764;9.796;2022-08-21T03:24:40;12.60;99.90
5901;DHT22;2976;49.764;9.796;2022-08-21T03:27:06;12.50;99.90
5901;DHT22;2976;49.764;9.796;2022-08-21T03:29:31;12.50;99.90
5901;DHT22;2976;49.764;9.796;2022-08-21T03:31:57;12.60;99.90
5901;DHT22;2976;49.764;9.796;2022-08-21T03:34:22;12.60;99.90
5901;DHT22;2976;49.764;9.796;2022-08-21T03:36:48;12.60;99.90
5901;DHT22;2976;49.764;9.796;2022-08-21T03:39:15;12.70;99.90
5901;DHT22;2976;49.764;9.796;2022-08-21T03:41:41;12.80;99.90
5901;DHT22;2976;49.764;9.796;2022-08-21T03:44:07;12.80;99.90
5901;DHT22;2976;49.764;9.796;2022-08-21T03:46:32;12.80;99.90
5901;DHT22;2976;49.764;9.796;2022-08-21T03:48:58;12.70;99.90
5901;DHT22;2976;49.764;9.796;2022-08-21T03:51:24;12.60;99.90
5901;DHT22;2976;49.764;9.796;2022-08-21T03:53:49;12.40;99.90
5901;DHT22;2976;49.764;9.796;2022-08-21T03:56:15;12.30;99.90
5901;DHT22;2976;49.764;9.796;2022-08-21T03:58:42;12.20;99.90
5901;DHT22;2976;49.764;9.796;2022-08-21T04:01:10;12.10;99.90
5901;DHT22;2976;49.764;9.796;2022-08-21T04:03:37;12.10;99.90
5901;DHT22;2976;49.764;9.796;2022-08-21T04:06:03;12.20;99.90
5901;DHT22;2976;49.764;9.796;2022-08-21T04:08:28;12.30;99.90
5901;DHT22;2976;49.764;9.796;2022-08-21T04:10:57;12.30;99.90
5901;DHT22;2976;49.764;9.796;2022-08-21T04:13:23;12.30;99.90
5901;DHT22;2976;49.764;9.796;2022-08-21T04:15:49;12.30;99.90
5901;DHT22;2976;49.764;9.796;2022-08-21T04:18:15;12.30;99.90
5901;DHT22;2976;49.764;9.796;2022-08-21T04:20:42;12.30;99.90
5901;DHT22;2976;49.764;9.796;2022-08-21T04:23:09;12.20;99.90
5901;DHT22;2976;49.764;9.796;2022-08-21T04:25:34;12.20;99.90
5901;DHT22;2976;49.764;9.796;2022-08-21T04:28:00;12.20;99.90
5901;DHT22;2976;49.764;9.796;2022-08-21T04:30:27;12.30;99.90
5901;DHT22;2976;49.764;9.796;2022-08-21T04:32:53;12.40;99.90
5901;DHT22;2976;49.764;9.796;2022-08-21T04:35:21;12.40;99.90
5901;DHT22;2976;49.764;9.796;2022-08-21T04:37:47;12.30;99.90
5901;DHT22;2976;49.764;9.796;2022-08-21T04:40:14;12.30;99.90
5901;DHT22;2976;49.764;9.796;2022-08-21T04:42:47;12.20;99.90
5901;DHT22;2976;49.764;9.796;2022-08-21T04:45:36;12.20;99.90
5901;DHT22;2976;49.764;9.796;2022-08-21T04:48:06;12.20;99.90
5901;DHT22;2976;49.764;9.796;2022-08-21T04:53:18;12.20;99.90
5901;DHT22;2976;49.764;9.796;2022-08-21T04:55:46;12.30;99.90
5901;DHT22;2976;49.764;9.796;2022-08-21T04:58:16;12.40;99.90
5901;DHT22;2976;49.764;9.796;2022-08-21T05:00:43;12.40;99.90
5901;DHT22;2976;49.764;9.796;2022-08-21T05:03:11;12.50;99.90
5901;DHT22;2976;49.764;9.796;2022-08-21T05:05:38;12.60;99.90
5901;DHT22;2976;49.764;9.796;2022-08-21T05:08:06;12.60;99.90
5901;DHT22;2976;49.764;9.796;2022-08-21T05:10:32;12.70;99.90
5901;DHT22;2976;49.764;9.796;2022-08-21T05:12:58;12.80;99.90
5901;DHT22;2976;49.764;9.796;2022-08-21T05:15:25;12.90;99.90
5901;DHT22;2976;49.764;9.796;2022-08-21T05:17:51;13.00;99.90
5901;DHT22;2976;49.764;9.796;2022-08-21T05:20:17;13.00;99.90
5901;DHT22;2976;49.764;9.796;2022-08-21T05:22:42;13.00;99.90
5901;DHT22;2976;49.764;9.796;2022-08-21T05:25:09;13.10;99.90
5901;DHT22;2976;49.764;9.796;2022-08-21T05:27:35;13.10;99.90
5901;DHT22;2976;49.764;9.796;2022-08-21T05:30:00;13.20;99.90
5901;DHT22;2976;49.764;9.796;2022-08-21T05:32:26;13.20;99.90
5901;DHT22;2976;49.764;9.796;2022-08-21T05:34:53;13.30;99.90
5901;DHT22;2976;49.764;9.796;2022-08-21T05:37:19;13.30;99.90
5901;DHT22;2976;49.764;9.796;2022-08-21T05:39:44;13.40;99.90
5901;DHT22;2976;49.764;9.796;2022-08-21T05:42:10;13.40;99.90
5901;DHT22;2976;49.764;9.796;2022-08-21T05:44:36;13.40;99.90
5901;DHT22;2976;49.764;9.796;2022-08-21T05:47:11;13.50;99.90
5901;DHT22;2976;49.764;9.796;2022-08-21T05:49:37;13.60;99.90
5901;DHT22;2976;49.764;9.796;2022-08-21T05:52:03;13.70;99.90
5901;DHT22;2976;49.764;9.796;2022-08-21T05:54:30;14.20;99.90
5901;DHT22;2976;49.764;9.796;2022-08-21T05:56:55;15.10;99.90
5901;DHT22;2976;49.764;9.796;2022-08-21T05:59:21;16.00;99.90
5901;DHT22;2976;49.764;9.796;2022-08-21T06:01:47;16.70;99.90
5901;DHT22;2976;49.764;9.796;2022-08-21T06:04:13;17.50;99.90
5901;DHT22;2976;49.764;9.796;2022-08-21T06:06:39;18.50;99.90
5901;DHT22;2976;49.764;9.796;2022-08-21T06:09:05;18.90;98.50
5901;DHT22;2976;49.764;9.796;2022-08-21T06:11:31;19.60;99.90
5901;DHT22;2976;49.764;9.796;2022-08-21T06:13:57;20.50;64.20
5901;DHT22;2976;49.764;9.796;2022-08-21T06:16:23;20.90;1.00
5901;DHT22;2976;49.764;9.796;2022-08-21T06:18:49;20.20;1.00
5901;DHT22;2976;49.764;9.796;2022-08-21T06:21:14;19.70;1.00
5901;DHT22;2976;49.764;9.796;2022-08-21T06:23:41;19.10;13.30
5901;DHT22;2976;49.764;9.796;2022-08-21T06:26:08;18.90;27.80
5901;DHT22;2976;49.764;9.796;2022-08-21T06:28:34;18.90;49.80
5901;DHT22;2976;49.764;9.796;2022-08-21T06:31:00;19.70;26.60
5901;DHT22;2976;49.764;9.796;2022-08-21T06:33:25;20.10;1.00
5901;DHT22;2976;49.764;9.796;2022-08-21T06:35:51;20.70;1.00
5901;DHT22;2976;49.764;9.796;2022-08-21T06:38:17;21.60;1.00
5901;DHT22;2976;49.764;9.796;2022-08-21T06:40:42;22.00;1.00
5901;DHT22;2976;49.764;9.796;2022-08-21T06:43:12;22.30;1.00
5901;DHT22;2976;49.764;9.796;2022-08-21T06:45:38;22.30;92.40
5901;DHT22;2976;49.764;9.796;2022-08-21T06:48:04;21.80;1.00
5901;DHT22;2976;49.764;9.796;2022-08-21T06:50:31;22.40;1.00
5901;DHT22;2976;49.764;9.796;2022-08-21T06:53:05;22.70;99.90
5901;DHT22;2976;49.764;9.796;2022-08-21T06:55:31;21.40;1.00
5901;DHT22;2976;49.764;9.796;2022-08-21T06:57:57;20.50;1.00
5901;DHT22;2976;49.764;9.796;2022-08-21T07:00:22;20.30;1.00
5901;DHT22;2976;49.764;9.796;2022-08-21T07:02:48;20.70;1.00
5901;DHT22;2976;49.764;9.796;2022-08-21T07:05:14;21.00;1.00
5901;DHT22;2976;49.764;9.796;2022-08-21T07:07:39;20.60;1.00
5901;DHT22;2976;49.764;9.796;2022-08-21T07:10:05;20.40;1.00
5901;DHT22;2976;49.764;9.796;2022-08-21T07:12:31;20.50;1.00
5901;DHT22;2976;49.764;9.796;2022-08-21T07:14:57;20.90;1.00
5901;DHT22;2976;49.764;9.796;2022-08-21T07:17:23;21.30;1.00
5901;DHT22;2976;49.764;9.796;2022-08-21T07:19:49;21.30;1.00
5901;DHT22;2976;49.764;9.796;2022-08-21T07:22:19;21.10;1.00
5901;DHT22;2976;49.764;9.796;2022-08-21T07:24:45;20.80;1.00
5901;DHT22;2976;49.764;9.796;2022-08-21T07:27:12;20.50;1.00
5901;DHT22;2976;49.764;9.796;2022-08-21T07:29:37;20.70;1.00
5901;DHT22;2976;49.764;9.796;2022-08-21T07:32:04;21.20;1.00
5901;DHT22;2976;49.764;9.796;2022-08-21T07:34:30;21.40;1.00
5901;DHT22;2976;49.764;9.796;2022-08-21T07:36:56;21.60;1.00
5901;DHT22;2976;49.764;9.796;2022-08-21T07:39:22;21.40;1.00
5901;DHT22;2976;49.764;9.796;2022-08-21T07:41:47;22.00;1.00
5901;DHT22;2976;49.764;9.796;2022-08-21T07:44:13;21.80;1.00
5901;DHT22;2976;49.764;9.796;2022-08-21T07:46:38;22.30;1.00
5901;DHT22;2976;49.764;9.796;2022-08-21T07:49:04;21.90;1.00
5901;DHT22;2976;49.764;9.796;2022-08-21T07:51:30;22.00;1.00
5901;DHT22;2976;49.764;9.796;2022-08-21T07:53:57;21.80;1.00
5901;DHT22;2976;49.764;9.796;2022-08-21T07:56:23;21.90;1.00
5901;DHT22;2976;49.764;9.796;2022-08-21T07:58:49;21.60;1.00
5901;DHT22;2976;49.764;9.796;2022-08-21T08:01:15;21.60;1.00
5901;DHT22;2976;49.764;9.796;2022-08-21T08:03:40;22.20;1.00
5901;DHT22;2976;49.764;9.796;2022-08-21T08:06:07;21.90;1.00
5901;DHT22;2976;49.764;9.796;2022-08-21T08:08:38;21.60;1.00
5901;DHT22;2976;49.764;9.796;2022-08-21T08:11:04;21.60;1.00
5901;DHT22;2976;49.764;9.796;2022-08-21T08:13:29;21.80;1.00
5901;DHT22;2976;49.764;9.796;2022-08-21T08:15:55;21.80;1.00
5901;DHT22;2976;49.764;9.796;2022-08-21T08:18:20;21.50;1.00
5901;DHT22;2976;49.764;9.796;2022-08-21T08:20:46;22.40;1.00
5901;DHT22;2976;49.764;9.796;2022-08-21T08:23:13;22.80;1.00
5901;DHT22;2976;49.764;9.796;2022-08-21T08:25:39;22.70;1.00
5901;DHT22;2976;49.764;9.796;2022-08-21T08:28:06;22.30;1.00
5901;DHT22;2976;49.764;9.796;2022-08-21T08:30:32;22.30;1.00
5901;DHT22;2976;49.764;9.796;2022-08-21T08:32:57;22.60;1.00
5901;DHT22;2976;49.764;9.796;2022-08-21T08:35:25;22.90;1.00
5901;DHT22;2976;49.764;9.796;2022-08-21T08:37:51;23.20;1.00
5901;DHT22;2976;49.764;9.796;2022-08-21T08:42:54;24.10;99.90
5901;DHT22;2976;49.764;9.796;2022-08-21T08:45:22;23.60;1.00
5901;DHT22;2976;49.764;9.796;2022-08-21T08:47:58;23.30;1.00
5901;DHT22;2976;49.764;9.796;2022-08-21T08:53:07;23.30;1.00
5901;DHT22;2976;49.764;9.796;2022-08-21T08:55:37;23.50;1.00
5901;DHT22;2976;49.764;9.796;2022-08-21T08:58:04;24.00;1.00
5901;DHT22;2976;49.764;9.796;2022-08-21T09:00:30;25.00;99.90
5901;DHT22;2976;49.764;9.796;2022-08-21T09:02:57;25.70;99.90
5901;DHT22;2976;49.764;9.796;2022-08-21T09:05:30;26.00;99.90
5901;DHT22;2976;49.764;9.796;2022-08-21T09:10:50;24.70;99.90
5901;DHT22;2976;49.764;9.796;2022-08-21T09:13:27;25.20;99.90
5901;DHT22;2976;49.764;9.796;2022-08-21T09:21:31;23.90;99.90
5901;DHT22;2976;49.764;9.796;2022-08-21T09:24:35;23.40;99.90
5901;DHT22;2976;49.764;9.796;2022-08-21T09:27:12;23.60;99.90
5901;DHT22;2976;49.764;9.796;2022-08-21T09:29:40;24.00;99.90
5901;DHT22;2976;49.764;9.796;2022-08-21T09:32:18;23.90;1.00
5901;DHT22;2976;49.764;9.796;2022-08-21T09:35:03;24.30;99.90
5901;DHT22;2976;49.764;9.796;2022-08-21T09:37:31;24.40;1.00
5901;DHT22;2976;49.764;9.796;2022-08-21T09:39:57;24.50;1.00
5901;DHT22;2976;49.764;9.796;2022-08-21T09:42:29;25.20;1.00
5901;DHT22;2976;49.764;9.796;2022-08-21T09:45:17;26.40;1.00
5901;DHT22;2976;49.764;9.796;2022-08-21T09:47:43;26.90;99.90
5901;DHT22;2976;49.764;9.796;2022-08-21T09:50:18;27.00;99.90
5901;DHT22;2976;49.764;9.796;2022-08-21T09:52:48;26.30;1.00
5901;DHT22;2976;49.764;9.796;2022-08-21T09:55:25;25.70;1.00
5901;DHT22;2976;49.764;9.796;2022-08-21T09:58:13;26.20;1.00
5901;DHT22;2976;49.764;9.796;2022-08-21T10:00:41;26.40;1.00
5901;DHT22;2976;49.764;9.796;2022-08-21T10:05:39;26.20;1.00
5901;DHT22;2976;49.764;9.796;2022-08-21T10:08:16;26.20;1.00
5901;DHT22;2976;49.764;9.796;2022-08-21T10:10:42;26.00;1.00
5901;DHT22;2976;49.764;9.796;2022-08-21T10:13:14;25.80;1.00
5901;DHT22;2976;49.764;9.796;2022-08-21T10:16:14;26.10;1.00
5901;DHT22;2976;49.764;9.796;2022-08-21T10:22:30;26.20;1.00
5901;DHT22;2976;49.764;9.796;2022-08-21T10:24:53;25.90;1.00
5901;DHT22;2976;49.764;9.796;2022-08-21T10:30:13;26.00;1.00
5901;DHT22;2976;49.764;9.796;2022-08-21T10:38:10;27.40;1.00
5901;DHT22;2976;49.764;9.796;2022-08-21T10:40:46;26.50;1.00
5901;DHT22;2976;49.764;9.796;2022-08-21T10:46:14;26.70;1.00
5901;DHT22;2976;49.764;9.796;2022-08-21T10:48:54;26.50;1.00
5901;DHT22;2976;49.764;9.796;2022-08-21T10:51:39;26.10;1.00
5901;DHT22;2976;49.764;9.796;2022-08-21T10:54:16;26.00;1.00
5901;DHT22;2976;49.764;9.796;2022-08-21T10:56:47;25.80;1.00
5901;DHT22;2976;49.764;9.796;2022-08-21T10:59:28;26.10;1.00
5901;DHT22;2976;49.764;9.796;2022-08-21T11:04:37;27.00;1.00
5901;DHT22;2976;49.764;9.796;2022-08-21T11:07:21;26.70;1.00
5901;DHT22;2976;49.764;9.796;2022-08-21T11:09:49;26.10;1.00
5901;DHT22;2976;49.764;9.796;2022-08-21T11:12:38;26.00;1.00
5901;DHT22;2976;49.764;9.796;2022-08-21T11:23:38;25.20;99.90
5901;DHT22;2976;49.764;9.796;2022-08-21T11:26:17;25.30;99.90
5901;DHT22;2976;49.764;9.796;2022-08-21T11:28:54;25.50;99.90
5901;DHT22;2976;49.764;9.796;2022-08-21T11:40:25;25.10;99.90
5901;DHT22;2976;49.764;9.796;2022-08-21T11:42:57;25.20;99.90
5901;DHT22;2976;49.764;9.796;2022-08-21T11:45:45;25.20;99.90
5901;DHT22;2976;49.764;9.796;2022-08-21T11:48:40;25.60;1.00
5901;DHT22;2976;49.764;9.796;2022-08-21T11:51:33;25.80;1.00
5901;DHT22;2976;49.764;9.796;2022-08-21T11:54:13;26.30;1.00
5901;DHT22;2976;49.764;9.796;2022-08-21T11:56:46;26.80;1.00
5901;DHT22;2976;49.764;9.796;2022-08-21T11:59:38;27.30;1.00
5901;DHT22;2976;49.764;9.796;2022-08-21T12:02:12;27.90;1.00
5901;DHT22;2976;49.764;9.796;2022-08-21T12:04:49;27.50;1.00
5901;DHT22;2976;49.764;9.796;2022-08-21T12:09:57;27.30;1.00
5901;DHT22;2976;49.764;9.796;2022-08-21T12:12:31;27.10;1.00
5901;DHT22;2976;49.764;9.796;2022-08-21T12:28:26;26.20;1.00
5901;DHT22;2976;49.764;9.796;2022-08-21T12:30:52;26.50;1.00
5901;DHT22;2976;49.764;9.796;2022-08-21T12:33:31;26.50;1.00
5901;DHT22;2976;49.764;9.796;2022-08-21T12:38:41;26.50;1.00
5901;DHT22;2976;49.764;9.796;2022-08-21T12:41:17;26.60;1.00
5901;DHT22;2976;49.764;9.796;2022-08-21T12:44:05;26.60;1.00
5901;DHT22;2976;49.764;9.796;2022-08-21T12:47:00;26.50;1.00
5901;DHT22;2976;49.764;9.796;2022-08-21T12:49:42;26.40;1.00
5901;DHT22;2976;49.764;9.796;2022-08-21T12:54:47;26.70;1.00
5901;DHT22;2976;49.764;9.796;2022-08-21T12:57:25;26.60;1.00
5901;DHT22;2976;49.764;9.796;2022-08-21T12:59:55;26.50;1.00
5901;DHT22;2976;49.764;9.796;2022-08-21T13:02:25;26.30;1.00
5901;DHT22;2976;49.764;9.796;2022-08-21T13:04:52;26.40;1.00
5901;DHT22;2976;49.764;9.796;2022-08-21T13:07:25;26.60;1.00
5901;DHT22;2976;49.764;9.796;2022-08-21T13:09:57;26.70;1.00
5901;DHT22;2976;49.764;9.796;2022-08-21T13:12:31;26.80;1.00
5901;DHT22;2976;49.764;9.796;2022-08-21T13:15:04;26.80;1.00
5901;DHT22;2976;49.764;9.796;2022-08-21T13:17:34;26.70;1.00
5901;DHT22;2976;49.764;9.796;2022-08-21T13:20:09;26.90;1.00
5901;DHT22;2976;49.764;9.796;2022-08-21T13:22:43;26.90;1.00
5901;DHT22;2976;49.764;9.796;2022-08-21T13:25:13;26.60;1.00
5901;DHT22;2976;49.764;9.796;2022-08-21T13:27:41;26.20;1.00
5901;DHT22;2976;49.764;9.796;2022-08-21T13:30:09;26.20;1.00
5901;DHT22;2976;49.764;9.796;2022-08-21T13:32:39;26.40;1.00
5901;DHT22;2976;49.764;9.796;2022-08-21T13:35:11;26.60;1.00
5901;DHT22;2976;49.764;9.796;2022-08-21T13:37:39;26.50;1.00
5901;DHT22;2976;49.764;9.796;2022-08-21T13:40:09;26.30;1.00
5901;DHT22;2976;49.764;9.796;2022-08-21T13:42:35;26.40;1.00
5901;DHT22;2976;49.764;9.796;2022-08-21T13:45:01;26.50;1.00
5901;DHT22;2976;49.764;9.796;2022-08-21T13:47:26;26.50;1.00
5901;DHT22;2976;49.764;9.796;2022-08-21T13:49:53;26.50;1.00
5901;DHT22;2976;49.764;9.796;2022-08-21T13:52:20;26.60;1.00
5901;DHT22;2976;49.764;9.796;2022-08-21T13:57:27;26.60;1.00
5901;DHT22;2976;49.764;9.796;2022-08-21T14:00:13;26.60;1.00
5901;DHT22;2976;49.764;9.796;2022-08-21T14:02:41;26.50;1.00
5901;DHT22;2976;49.764;9.796;2022-08-21T14:05:16;26.60;1.00
5901;DHT22;2976;49.764;9.796;2022-08-21T14:07:45;26.60;1.00
5901;DHT22;2976;49.764;9.796;2022-08-21T14:10:21;26.60;1.00
5901;DHT22;2976;49.764;9.796;2022-08-21T14:12:53;26.60;1.00
5901;DHT22;2976;49.764;9.796;2022-08-21T14:15:26;26.60;1.00
5901;DHT22;2976;49.764;9.796;2022-08-21T14:17:54;26.60;1.00
5901;DHT22;2976;49.764;9.796;2022-08-21T14:20:34;26.70;1.00
5901;DHT22;2976;49.764;9.796;2022-08-21T14:23:00;26.70;1.00
5901;DHT22;2976;49.764;9.796;2022-08-21T14:25:27;26.80;1.00
5901;DHT22;2976;49.764;9.796;2022-08-21T14:28:15;26.80;1.00
5901;DHT22;2976;49.764;9.796;2022-08-21T14:30:44;26.80;1.00
5901;DHT22;2976;49.764;9.796;2022-08-21T14:33:12;26.80;1.00
5901;DHT22;2976;49.764;9.796;2022-08-21T14:35:39;26.80;1.00
5901;DHT22;2976;49.764;9.796;2022-08-21T14:38:16;26.80;1.00
5901;DHT22;2976;49.764;9.796;2022-08-21T14:40:43;26.90;1.00
5901;DHT22;2976;49.764;9.796;2022-08-21T14:43:09;27.00;1.00
5901;DHT22;2976;49.764;9.796;2022-08-21T14:45:35;26.90;1.00
5901;DHT22;2976;49.764;9.796;2022-08-21T14:48:02;26.80;1.00
5901;DHT22;2976;49.764;9.796;2022-08-21T14:50:28;26.80;1.00
5901;DHT22;2976;49.764;9.796;2022-08-21T14:52:55;26.70;1.00
5901;DHT22;2976;49.764;9.796;2022-08-21T14:55:20;26.50;1.00
5901;DHT22;2976;49.764;9.796;2022-08-21T14:57:48;26.40;1.00
5901;DHT22;2976;49.764;9.796;2022-08-21T15:00:18;26.30;1.00
5901;DHT22;2976;49.764;9.796;2022-08-21T15:02:44;26.40;1.00
5901;DHT22;2976;49.764;9.796;2022-08-21T15:05:10;26.30;1.00
5901;DHT22;2976;49.764;9.796;2022-08-21T15:07:36;26.20;1.00
5901;DHT22;2976;49.764;9.796;2022-08-21T15:10:03;26.30;1.00
5901;DHT22;2976;49.764;9.796;2022-08-21T15:12:29;26.40;1.00
5901;DHT22;2976;49.764;9.796;2022-08-21T15:14:55;26.50;1.00
5901;DHT22;2976;49.764;9.796;2022-08-21T15:17:21;26.50;1.00
5901;DHT22;2976;49.764;9.796;2022-08-21T15:19:46;26.50;1.00
5901;DHT22;2976;49.764;9.796;2022-08-21T15:22:12;26.50;1.00
5901;DHT22;2976;49.764;9.796;2022-08-21T15:24:37;26.50;1.00
5901;DHT22;2976;49.764;9.796;2022-08-21T15:27:04;26.30;1.00
5901;DHT22;2976;49.764;9.796;2022-08-21T15:29:31;26.00;1.00
5901;DHT22;2976;49.764;9.796;2022-08-21T15:32:00;25.80;1.00
5901;DHT22;2976;49.764;9.796;2022-08-21T15:34:28;25.90;1.00
5901;DHT22;2976;49.764;9.796;2022-08-21T15:36:55;26.00;1.00
5901;DHT22;2976;49.764;9.796;2022-08-21T15:39:21;26.00;1.00
5901;DHT22;2976;49.764;9.796;2022-08-21T15:41:47;26.00;1.00
5901;DHT22;2976;49.764;9.796;2022-08-21T15:44:14;26.00;1.00
5901;DHT22;2976;49.764;9.796;2022-08-21T15:46:40;26.20;1.00
5901;DHT22;2976;49.764;9.796;2022-08-21T15:49:07;26.20;1.00
5901;DHT22;2976;49.764;9.796;2022-08-21T15:51:33;26.30;1.00
5901;DHT22;2976;49.764;9.796;2022-08-21T15:53:59;26.30;1.00
5901;DHT22;2976;49.764;9.796;2022-08-21T15:56:27;26.30;1.00
5901;DHT22;2976;49.764;9.796;2022-08-21T15:58:59;26.30;1.00
5901;DHT22;2976;49.764;9.796;2022-08-21T16:01:26;26.40;1.00
5901;DHT22;2976;49.764;9.796;2022-08-21T16:03:53;26.40;1.00
5901;DHT22;2976;49.764;9.796;2022-08-21T16:06:19;26.30;1.00
5901;DHT22;2976;49.764;9.796;2022-08-21T16:08:45;26.40;1.00
5901;DHT22;2976;49.764;9.796;2022-08-21T16:11:11;26.30;1.00
5901;DHT22;2976;49.764;9.796;2022-08-21T16:13:41;26.30;1.00
5901;DHT22;2976;49.764;9.796;2022-08-21T16:16:10;26.40;1.00
5901;DHT22;2976;49.764;9.796;2022-08-21T16:18:36;26.30;1.00
5901;DHT22;2976;49.764;9.796;2022-08-21T16:21:02;26.30;1.00
5901;DHT22;2976;49.764;9.796;2022-08-21T16:23:28;26.30;1.00
5901;DHT22;2976;49.764;9.796;2022-08-21T16:25:53;26.30;1.00
5901;DHT22;2976;49.764;9.796;2022-08-21T16:28:20;26.30;1.00
5901;DHT22;2976;49.764;9.796;2022-08-21T16:30:48;26.20;1.00
5901;DHT22;2976;49.764;9.796;2022-08-21T16:33:31;26.10;1.00
5901;DHT22;2976;49.764;9.796;2022-08-21T16:35:57;26.10;1.00
5901;DHT22;2976;49.764;9.796;2022-08-21T16:38:24;26.20;1.00
5901;DHT22;2976;49.764;9.796;2022-08-21T16:40:50;26.20;1.00
5901;DHT22;2976;49.764;9.796;2022-08-21T16:43:16;26.20;1.00
5901;DHT22;2976;49.764;9.796;2022-08-21T16:45:42;26.20;1.00
5901;DHT22;2976;49.764;9.796;2022-08-21T16:48:08;26.20;1.00
5901;DHT22;2976;49.764;9.796;2022-08-21T16:50:35;26.20;1.00
5901;DHT22;2976;49.764;9.796;2022-08-21T16:53:01;26.10;1.00
5901;DHT22;2976;49.764;9.796;2022-08-21T16:55:27;26.20;1.00
5901;DHT22;2976;49.764;9.796;2022-08-21T16:57:53;26.20;1.00
5901;DHT22;2976;49.764;9.796;2022-08-21T17:00:20;26.20;1.00
5901;DHT22;2976;49.764;9.796;2022-08-21T17:02:49;26.20;1.00
5901;DHT22;2976;49.764;9.796;2022-08-21T17:05:15;26.30;1.00
5901;DHT22;2976;49.764;9.796;2022-08-21T17:07:42;26.20;1.00
5901;DHT22;2976;49.764;9.796;2022-08-21T17:10:09;26.10;1.00
5901;DHT22;2976;49.764;9.796;2022-08-21T17:12:36;26.10;1.00
5901;DHT22;2976;49.764;9.796;2022-08-21T17:15:09;26.00;1.00
5901;DHT22;2976;49.764;9.796;2022-08-21T17:17:37;26.00;1.00
5901;DHT22;2976;49.764;9.796;2022-08-21T17:20:03;25.90;1.00
5901;DHT22;2976;49.764;9.796;2022-08-21T17:22:29;25.70;1.00
5901;DHT22;2976;49.764;9.796;2022-08-21T17:24:55;25.70;1.00
5901;DHT22;2976;49.764;9.796;2022-08-21T17:27:22;25.60;1.00
5901;DHT22;2976;49.764;9.796;2022-08-21T17:29:49;25.50;1.00
5901;DHT22;2976;49.764;9.796;2022-08-21T17:32:16;25.40;1.00
5901;DHT22;2976;49.764;9.796;2022-08-21T17:34:42;25.30;1.00
5901;DHT22;2976;49.764;9.796;2022-08-21T17:37:08;25.30;1.00
5901;DHT22;2976;49.764;9.796;2022-08-21T17:39:34;25.20;1.00